Hovedside
METAR-TAF:

METAR-TAF

Lufthavner :

Vardø, Norge

Vardø lufthavn. Svartnes

breddegrad: 70-21N, lengdegrad: 031-03E, høyde over havet: 12 m

Gjeldene værobservasjon

Denne rapporten ble laget for 14 minutter siden, klokken 07:20 UTC
Vind 11 kt fra Sørøst
Temperatur -1°C
Luftfuktighet 64%
Trykk 1006 hPa
Sikt 10 km eller mer
Brutte skyer i en høyde av 3000 ft

METAR: ENSS 210720Z 13011KT 9999 BKN030 M01/M07 Q1006 RMK WIND 500FT 12011KT

Tid: 09:34 (07:34 UTC)


TAF: fraværende

Værobservasjoner og værvarsel for over 4000 flyplasser (METAR- og TAF-rapporter).

Tilgjengelige stasjoner er representert av de røde og gule prikkene på kartet.

Hold musepekeren over prikken for å se navnet på stasjonen.

Klikk så for å se værobservasjoner og -varsler.

For å forandre kartet kan du klikke på den grønne knappen med svart kryss for å zoome inn, på den grønne knappen med strek for å zoome ut, eller på de grønne pilene for å se tilstøtende kart.


METAR-TAF: